HALF-HOURLY OBSERVATIONS INDEX

078

Wimmera - north

KELLALAC (WARRACKNABEAL AIRPORT)

Site: 078018
Alt: 118.3m
48km NNE of HORSHAM


  Time     Wind        Temp  DP   Baro     Rain since   Rain past  Vis(m), Cloud(base in m), Weather
  local        km/h                         9am  last   hr   10m    
Mon 11:00   SE 22/ 32  21.3 11.6  1018.7    0.0   0.0   0.0   0.0   ----- 
Mon 11:30  SSE 19/ 28  21.8 11.2  1018.7    0.0   0.0   0.0   0.0   ----- 
Mon 12:00    S 20/ 26  22.9 10.7  1018.6    0.0   0.0   0.0   0.0   ----- 
Mon 12:30   SE 22/ 33  24.1  8.9  1018.3    0.0   0.0   0.0   0.0   ----- 
Mon 13:00  SSE 19/ 32  24.3  7.4  1018.0    0.0   0.0   0.0   0.0   ----- 
Mon 13:30  SSE 20/ 33  24.9  7.1  1017.6    0.0   0.0   0.0   0.0   ----- 
Mon 14:00  SSE 20/ 26  25.4  7.1  1017.3    0.0   0.0   0.0   0.0   ----- 
Mon 14:30    S 17/ 28  26.2  6.3  1016.9    0.0   0.0   0.0   0.0   ----- 
Mon 15:00  SSE 17/ 32  26.7  5.6  1016.6    0.0   0.0   0.0   0.0   ----- 
Mon 15:30    S 22/ 33  27.9  6.1  1016.1    0.0   0.0   0.0   0.0   ----- 
Mon 16:00    S 24/ 32  27.5  5.7  1015.9    0.0   0.0   0.0   0.0   ----- 
Mon 16:30   SE 20/ 26  27.7  5.9  1015.4    0.0   0.0   0.0   0.0   ----- 

NHILL AERODROME

Site: 078015
Alt: 138.9m
38km WNW of DIMBOOLA


  Time     Wind        Temp  DP   Baro     Rain since   Rain past  Vis(m), Cloud(base in m), Weather
  local        km/h                         9am  last   hr   10m    
Mon 11:00  SSE 13/ 20  20.0 12.0  1019.0    0.0   0.0   0.0   0.0   ----- 
Mon 11:30  ESE  9/ 20  20.9 11.3  1019.0    0.0   0.0   0.0   0.0   ----- 
Mon 12:00  SSE 13/ 26  21.7 10.2  1018.9    0.0   0.0   0.0   0.0   ----- 
Mon 12:30    S 11/ 17  22.6  9.4  1018.6    0.0   0.0   0.0   0.0   ----- 
Mon 13:00   SE 11/ 20  23.3  8.6  1018.4    0.0   0.0   0.0   0.0   ----- 
Mon 13:30  SSW 11/ 17  24.6  6.8  1017.9    0.0   0.0   0.0   0.0   ----- 
Mon 14:00  ESE  7/ 15  26.1  6.7  1017.7    0.0   0.0   0.0   0.0   ----- 
Mon 14:30  SSE 13/ 22  25.6  6.8  1017.4    0.0   0.0   0.0   0.0   ----- 
Mon 15:00    S 15/ 24  26.4  6.4  1017.1    0.0   0.0   0.0   0.0   ----- 
Mon 15:30    S 19/ 28  27.0  7.5  1016.7    0.0   0.0   0.0   0.0   ----- 
Mon 16:00    S 11/ 17  26.1  6.7  1016.2    0.0   0.0   0.0   0.0   ----- 
Mon 16:30    S 15/ 24  26.6  6.1  1016.1    0.0   0.0   0.0   0.0   -----